sensor_id;sensor_type;location;lat;lon;timestamp;temperature;humidity
16955;DHT22;8594;52.052;8.354;2023-04-16T00:02:20;10.30;99.90
16955;DHT22;8594;52.052;8.354;2023-04-16T00:04:47;10.30;99.90
16955;DHT22;8594;52.052;8.354;2023-04-16T00:07:14;10.20;99.90
16955;DHT22;8594;52.052;8.354;2023-04-16T00:09:41;10.20;99.90
16955;DHT22;8594;52.052;8.354;2023-04-16T00:12:07;10.30;99.90
16955;DHT22;8594;52.052;8.354;2023-04-16T00:14:34;10.20;99.90
16955;DHT22;8594;52.052;8.354;2023-04-16T00:17:02;10.10;99.90
16955;DHT22;8594;52.052;8.354;2023-04-16T00:19:29;10.10;99.90
16955;DHT22;8594;52.052;8.354;2023-04-16T00:21:56;10.10;99.90
16955;DHT22;8594;52.052;8.354;2023-04-16T00:24:22;10.20;99.90
16955;DHT22;8594;52.052;8.354;2023-04-16T00:26:49;10.20;99.90
16955;DHT22;8594;52.052;8.354;2023-04-16T00:29:16;10.10;99.90
16955;DHT22;8594;52.052;8.354;2023-04-16T00:31:43;10.10;99.90
16955;DHT22;8594;52.052;8.354;2023-04-16T00:34:11;10.00;99.90
16955;DHT22;8594;52.052;8.354;2023-04-16T00:36:38;10.00;99.90
16955;DHT22;8594;52.052;8.354;2023-04-16T00:39:04;10.10;99.90
16955;DHT22;8594;52.052;8.354;2023-04-16T00:41:31;10.10;99.90
16955;DHT22;8594;52.052;8.354;2023-04-16T00:43:58;10.10;99.90
16955;DHT22;8594;52.052;8.354;2023-04-16T00:46:25;10.10;99.90
16955;DHT22;8594;52.052;8.354;2023-04-16T00:48:53;10.10;99.90
16955;DHT22;8594;52.052;8.354;2023-04-16T00:51:22;10.10;99.90
16955;DHT22;8594;52.052;8.354;2023-04-16T00:53:49;10.20;99.90
16955;DHT22;8594;52.052;8.354;2023-04-16T00:56:17;10.10;99.90
16955;DHT22;8594;52.052;8.354;2023-04-16T00:58:44;10.00;99.90
16955;DHT22;8594;52.052;8.354;2023-04-16T01:01:11;10.10;99.90
16955;DHT22;8594;52.052;8.354;2023-04-16T01:03:41;10.10;99.90
16955;DHT22;8594;52.052;8.354;2023-04-16T01:06:10;10.10;99.90
16955;DHT22;8594;52.052;8.354;2023-04-16T01:08:39;10.10;99.90
16955;DHT22;8594;52.052;8.354;2023-04-16T01:11:06;10.10;99.90
16955;DHT22;8594;52.052;8.354;2023-04-16T01:13:33;10.20;99.90
16955;DHT22;8594;52.052;8.354;2023-04-16T01:16:04;10.10;99.90
16955;DHT22;8594;52.052;8.354;2023-04-16T01:18:32;9.90;99.90
16955;DHT22;8594;52.052;8.354;2023-04-16T01:21:00;9.90;99.90
16955;DHT22;8594;52.052;8.354;2023-04-16T01:23:27;9.90;99.90
16955;DHT22;8594;52.052;8.354;2023-04-16T01:25:53;10.00;99.90
16955;DHT22;8594;52.052;8.354;2023-04-16T01:28:21;10.20;99.90
16955;DHT22;8594;52.052;8.354;2023-04-16T01:30:48;10.20;99.90
16955;DHT22;8594;52.052;8.354;2023-04-16T01:33:15;10.30;99.90
16955;DHT22;8594;52.052;8.354;2023-04-16T01:35:44;10.40;99.90
16955;DHT22;8594;52.052;8.354;2023-04-16T01:38:12;10.40;99.90
16955;DHT22;8594;52.052;8.354;2023-04-16T01:40:39;10.40;99.90
16955;DHT22;8594;52.052;8.354;2023-04-16T01:43:06;10.40;99.90
16955;DHT22;8594;52.052;8.354;2023-04-16T01:45:33;10.40;99.90
16955;DHT22;8594;52.052;8.354;2023-04-16T01:48:00;10.40;99.90
16955;DHT22;8594;52.052;8.354;2023-04-16T01:50:29;10.20;99.90
16955;DHT22;8594;52.052;8.354;2023-04-16T01:52:56;10.20;99.90
16955;DHT22;8594;52.052;8.354;2023-04-16T01:55:24;10.20;99.90
16955;DHT22;8594;52.052;8.354;2023-04-16T01:57:51;10.20;99.90
16955;DHT22;8594;52.052;8.354;2023-04-16T02:00:18;10.10;99.90
16955;DHT22;8594;52.052;8.354;2023-04-16T02:02:45;10.10;99.90
16955;DHT22;8594;52.052;8.354;2023-04-16T02:05:13;10.20;99.90
16955;DHT22;8594;52.052;8.354;2023-04-16T02:07:40;10.40;99.90
16955;DHT22;8594;52.052;8.354;2023-04-16T02:10:07;10.50;99.90
16955;DHT22;8594;52.052;8.354;2023-04-16T02:12:36;10.50;99.90
16955;DHT22;8594;52.052;8.354;2023-04-16T02:15:04;10.60;99.90
16955;DHT22;8594;52.052;8.354;2023-04-16T02:17:31;10.40;99.90
16955;DHT22;8594;52.052;8.354;2023-04-16T02:19:58;10.40;99.90
16955;DHT22;8594;52.052;8.354;2023-04-16T02:22:27;10.40;99.90
16955;DHT22;8594;52.052;8.354;2023-04-16T02:24:53;10.30;99.90
16955;DHT22;8594;52.052;8.354;2023-04-16T02:27:20;10.30;99.90
16955;DHT22;8594;52.052;8.354;2023-04-16T02:29:48;10.30;99.90
16955;DHT22;8594;52.052;8.354;2023-04-16T02:32:15;10.50;99.90
16955;DHT22;8594;52.052;8.354;2023-04-16T02:34:42;10.40;99.90
16955;DHT22;8594;52.052;8.354;2023-04-16T02:37:09;10.40;99.90
16955;DHT22;8594;52.052;8.354;2023-04-16T02:39:36;10.40;99.90
16955;DHT22;8594;52.052;8.354;2023-04-16T02:42:03;10.20;99.90
16955;DHT22;8594;52.052;8.354;2023-04-16T02:44:29;10.20;99.90
16955;DHT22;8594;52.052;8.354;2023-04-16T02:46:58;10.30;99.90
16955;DHT22;8594;52.052;8.354;2023-04-16T02:49:24;10.30;99.90
16955;DHT22;8594;52.052;8.354;2023-04-16T02:51:51;10.10;99.90
16955;DHT22;8594;52.052;8.354;2023-04-16T02:54:18;10.20;99.90
16955;DHT22;8594;52.052;8.354;2023-04-16T02:56:45;10.30;99.90
16955;DHT22;8594;52.052;8.354;2023-04-16T02:59:11;10.20;99.90
16955;DHT22;8594;52.052;8.354;2023-04-16T03:01:38;10.10;99.90
16955;DHT22;8594;52.052;8.354;2023-04-16T03:04:06;10.10;99.90
16955;DHT22;8594;52.052;8.354;2023-04-16T03:06:33;10.10;99.90
16955;DHT22;8594;52.052;8.354;2023-04-16T03:09:00;10.10;99.90
16955;DHT22;8594;52.052;8.354;2023-04-16T03:11:27;10.10;99.90
16955;DHT22;8594;52.052;8.354;2023-04-16T03:13:54;9.90;99.90
16955;DHT22;8594;52.052;8.354;2023-04-16T03:16:21;9.80;99.90
16955;DHT22;8594;52.052;8.354;2023-04-16T03:18:48;9.80;99.90
16955;DHT22;8594;52.052;8.354;2023-04-16T03:21:16;9.80;99.90
16955;DHT22;8594;52.052;8.354;2023-04-16T03:23:43;9.90;99.90
16955;DHT22;8594;52.052;8.354;2023-04-16T03:26:10;9.90;99.90
16955;DHT22;8594;52.052;8.354;2023-04-16T03:28:36;9.80;99.90
16955;DHT22;8594;52.052;8.354;2023-04-16T03:31:03;9.80;99.90
16955;DHT22;8594;52.052;8.354;2023-04-16T03:33:30;9.80;99.90
16955;DHT22;8594;52.052;8.354;2023-04-16T03:35:57;9.60;99.90
16955;DHT22;8594;52.052;8.354;2023-04-16T03:38:25;9.50;99.90
16955;DHT22;8594;52.052;8.354;2023-04-16T03:40:52;9.40;99.90
16955;DHT22;8594;52.052;8.354;2023-04-16T03:43:19;9.40;99.90
16955;DHT22;8594;52.052;8.354;2023-04-16T03:45:46;9.40;99.90
16955;DHT22;8594;52.052;8.354;2023-04-16T03:48:13;9.40;99.90
16955;DHT22;8594;52.052;8.354;2023-04-16T03:50:44;9.40;99.90
16955;DHT22;8594;52.052;8.354;2023-04-16T03:53:12;9.50;99.90
16955;DHT22;8594;52.052;8.354;2023-04-16T03:55:40;9.50;99.90
16955;DHT22;8594;52.052;8.354;2023-04-16T03:58:07;9.50;99.90
16955;DHT22;8594;52.052;8.354;2023-04-16T04:00:34;9.50;99.90
16955;DHT22;8594;52.052;8.354;2023-04-16T04:03:00;9.50;99.90
16955;DHT22;8594;52.052;8.354;2023-04-16T04:05:27;9.40;99.90
16955;DHT22;8594;52.052;8.354;2023-04-16T04:07:54;9.30;99.90
16955;DHT22;8594;52.052;8.354;2023-04-16T04:10:21;9.40;99.90
16955;DHT22;8594;52.052;8.354;2023-04-16T04:12:49;9.40;99.90
16955;DHT22;8594;52.052;8.354;2023-04-16T04:15:15;9.30;99.90
16955;DHT22;8594;52.052;8.354;2023-04-16T04:17:42;9.40;99.90
16955;DHT22;8594;52.052;8.354;2023-04-16T04:20:10;9.40;99.90
16955;DHT22;8594;52.052;8.354;2023-04-16T04:22:37;9.40;99.90
16955;DHT22;8594;52.052;8.354;2023-04-16T04:25:04;9.30;99.90
16955;DHT22;8594;52.052;8.354;2023-04-16T04:27:32;9.20;99.90
16955;DHT22;8594;52.052;8.354;2023-04-16T04:30:01;9.20;99.90
16955;DHT22;8594;52.052;8.354;2023-04-16T04:32:28;9.20;99.90
16955;DHT22;8594;52.052;8.354;2023-04-16T04:34:55;9.10;99.90
16955;DHT22;8594;52.052;8.354;2023-04-16T04:37:22;9.10;99.90
16955;DHT22;8594;52.052;8.354;2023-04-16T04:39:49;9.20;99.90
16955;DHT22;8594;52.052;8.354;2023-04-16T04:42:17;9.30;99.90
16955;DHT22;8594;52.052;8.354;2023-04-16T04:44:44;9.30;99.90
16955;DHT22;8594;52.052;8.354;2023-04-16T04:47:13;9.30;99.90
16955;DHT22;8594;52.052;8.354;2023-04-16T04:49:40;9.10;99.90
16955;DHT22;8594;52.052;8.354;2023-04-16T04:52:07;9.10;99.90
16955;DHT22;8594;52.052;8.354;2023-04-16T04:54:34;9.00;99.90
16955;DHT22;8594;52.052;8.354;2023-04-16T04:57:05;8.90;99.90
16955;DHT22;8594;52.052;8.354;2023-04-16T04:59:32;8.70;99.90
16955;DHT22;8594;52.052;8.354;2023-04-16T05:01:59;8.80;99.90
16955;DHT22;8594;52.052;8.354;2023-04-16T05:04:29;8.90;99.90
16955;DHT22;8594;52.052;8.354;2023-04-16T05:06:56;8.90;99.90
16955;DHT22;8594;52.052;8.354;2023-04-16T05:09:22;9.00;99.90
16955;DHT22;8594;52.052;8.354;2023-04-16T05:11:49;9.10;99.90
16955;DHT22;8594;52.052;8.354;2023-04-16T05:14:16;9.10;99.90
16955;DHT22;8594;52.052;8.354;2023-04-16T05:16:43;9.10;99.90
16955;DHT22;8594;52.052;8.354;2023-04-16T05:19:10;9.10;99.90
16955;DHT22;8594;52.052;8.354;2023-04-16T05:21:38;8.90;99.90
16955;DHT22;8594;52.052;8.354;2023-04-16T05:24:05;9.00;99.90
16955;DHT22;8594;52.052;8.354;2023-04-16T05:26:32;9.10;99.90
16955;DHT22;8594;52.052;8.354;2023-04-16T05:28:59;9.10;99.90
16955;DHT22;8594;52.052;8.354;2023-04-16T05:31:25;9.30;99.90
16955;DHT22;8594;52.052;8.354;2023-04-16T05:33:52;9.30;99.90
16955;DHT22;8594;52.052;8.354;2023-04-16T05:36:19;9.30;99.90
16955;DHT22;8594;52.052;8.354;2023-04-16T05:38:47;9.30;99.90
16955;DHT22;8594;52.052;8.354;2023-04-16T05:41:14;9.00;99.90
16955;DHT22;8594;52.052;8.354;2023-04-16T05:43:40;9.00;99.90
16955;DHT22;8594;52.052;8.354;2023-04-16T05:46:07;9.10;99.90
16955;DHT22;8594;52.052;8.354;2023-04-16T05:48:34;9.30;99.90
16955;DHT22;8594;52.052;8.354;2023-04-16T05:51:01;9.30;99.90
16955;DHT22;8594;52.052;8.354;2023-04-16T05:53:27;9.30;99.90
16955;DHT22;8594;52.052;8.354;2023-04-16T05:55:55;9.40;99.90
16955;DHT22;8594;52.052;8.354;2023-04-16T05:58:22;9.40;99.90
16955;DHT22;8594;52.052;8.354;2023-04-16T06:00:49;9.50;99.90
16955;DHT22;8594;52.052;8.354;2023-04-16T06:03:16;9.60;99.90
16955;DHT22;8594;52.052;8.354;2023-04-16T06:05:43;9.70;99.90
16955;DHT22;8594;52.052;8.354;2023-04-16T06:08:10;9.80;99.90
16955;DHT22;8594;52.052;8.354;2023-04-16T06:10:37;9.80;99.90
16955;DHT22;8594;52.052;8.354;2023-04-16T06:13:05;9.70;99.90
16955;DHT22;8594;52.052;8.354;2023-04-16T06:15:32;9.70;99.90
16955;DHT22;8594;52.052;8.354;2023-04-16T06:17:59;9.90;99.90
16955;DHT22;8594;52.052;8.354;2023-04-16T06:20:25;10.00;99.90
16955;DHT22;8594;52.052;8.354;2023-04-16T06:22:52;10.00;99.90
16955;DHT22;8594;52.052;8.354;2023-04-16T06:25:19;10.00;99.90
16955;DHT22;8594;52.052;8.354;2023-04-16T06:27:46;10.10;99.90
16955;DHT22;8594;52.052;8.354;2023-04-16T06:30:15;10.30;99.90
16955;DHT22;8594;52.052;8.354;2023-04-16T06:32:42;10.50;99.90
16955;DHT22;8594;52.052;8.354;2023-04-16T06:35:09;10.30;99.90
16955;DHT22;8594;52.052;8.354;2023-04-16T06:37:35;10.30;99.90
16955;DHT22;8594;52.052;8.354;2023-04-16T06:40:03;10.40;99.90
16955;DHT22;8594;52.052;8.354;2023-04-16T06:42:30;10.50;99.90
16955;DHT22;8594;52.052;8.354;2023-04-16T06:44:57;10.30;99.90
16955;DHT22;8594;52.052;8.354;2023-04-16T06:47:25;10.10;99.90
16955;DHT22;8594;52.052;8.354;2023-04-16T06:49:52;10.00;99.90
16955;DHT22;8594;52.052;8.354;2023-04-16T06:52:19;10.20;99.90
16955;DHT22;8594;52.052;8.354;2023-04-16T06:54:46;10.20;99.90
16955;DHT22;8594;52.052;8.354;2023-04-16T06:57:13;10.10;99.90
16955;DHT22;8594;52.052;8.354;2023-04-16T06:59:40;10.30;99.90
16955;DHT22;8594;52.052;8.354;2023-04-16T07:02:09;10.40;99.90
16955;DHT22;8594;52.052;8.354;2023-04-16T07:04:37;10.50;99.90
16955;DHT22;8594;52.052;8.354;2023-04-16T07:07:04;10.60;99.90
16955;DHT22;8594;52.052;8.354;2023-04-16T07:09:30;10.70;99.90
16955;DHT22;8594;52.052;8.354;2023-04-16T07:11:57;10.70;99.90
16955;DHT22;8594;52.052;8.354;2023-04-16T07:14:24;10.70;99.90
16955;DHT22;8594;52.052;8.354;2023-04-16T07:16:51;10.80;99.90
16955;DHT22;8594;52.052;8.354;2023-04-16T07:19:17;10.90;99.90
16955;DHT22;8594;52.052;8.354;2023-04-16T07:21:46;11.00;99.90
16955;DHT22;8594;52.052;8.354;2023-04-16T07:24:12;10.80;99.90
16955;DHT22;8594;52.052;8.354;2023-04-16T07:26:39;10.90;99.90
16955;DHT22;8594;52.052;8.354;2023-04-16T07:29:06;11.10;99.90
16955;DHT22;8594;52.052;8.354;2023-04-16T07:31:33;11.30;99.90
16955;DHT22;8594;52.052;8.354;2023-04-16T07:33:59;11.30;99.90
16955;DHT22;8594;52.052;8.354;2023-04-16T07:36:26;11.30;99.90
16955;DHT22;8594;52.052;8.354;2023-04-16T07:38:55;11.40;99.90
16955;DHT22;8594;52.052;8.354;2023-04-16T07:41:22;11.20;99.90
16955;DHT22;8594;52.052;8.354;2023-04-16T07:43:49;11.00;99.90
16955;DHT22;8594;52.052;8.354;2023-04-16T07:46:16;11.00;99.90
16955;DHT22;8594;52.052;8.354;2023-04-16T07:48:43;11.00;99.90
16955;DHT22;8594;52.052;8.354;2023-04-16T07:51:10;10.90;99.90
16955;DHT22;8594;52.052;8.354;2023-04-16T07:53:36;10.90;99.90
16955;DHT22;8594;52.052;8.354;2023-04-16T07:56:05;11.00;99.90
16955;DHT22;8594;52.052;8.354;2023-04-16T07:58:32;10.90;99.90
16955;DHT22;8594;52.052;8.354;2023-04-16T08:00:59;11.00;99.90
16955;DHT22;8594;52.052;8.354;2023-04-16T08:03:26;11.00;99.90
16955;DHT22;8594;52.052;8.354;2023-04-16T08:05:53;10.90;99.90
16955;DHT22;8594;52.052;8.354;2023-04-16T08:08:20;10.90;99.90
16955;DHT22;8594;52.052;8.354;2023-04-16T08:10:48;11.20;99.90
16955;DHT22;8594;52.052;8.354;2023-04-16T08:13:21;11.20;99.90
16955;DHT22;8594;52.052;8.354;2023-04-16T08:15:48;11.10;99.90
16955;DHT22;8594;52.052;8.354;2023-04-16T08:18:15;11.40;99.90
16955;DHT22;8594;52.052;8.354;2023-04-16T08:20:42;11.40;99.90
16955;DHT22;8594;52.052;8.354;2023-04-16T08:23:08;11.70;99.90
16955;DHT22;8594;52.052;8.354;2023-04-16T08:25:35;11.90;99.90
16955;DHT22;8594;52.052;8.354;2023-04-16T08:28:02;12.30;99.90
16955;DHT22;8594;52.052;8.354;2023-04-16T08:30:31;12.40;99.90
16955;DHT22;8594;52.052;8.354;2023-04-16T08:32:57;12.40;99.90
16955;DHT22;8594;52.052;8.354;2023-04-16T08:35:25;12.30;99.90
16955;DHT22;8594;52.052;8.354;2023-04-16T08:37:52;12.50;99.90
16955;DHT22;8594;52.052;8.354;2023-04-16T08:40:19;12.90;99.90
16955;DHT22;8594;52.052;8.354;2023-04-16T08:42:50;13.20;99.90
16955;DHT22;8594;52.052;8.354;2023-04-16T08:45:20;13.00;99.90
16955;DHT22;8594;52.052;8.354;2023-04-16T08:47:50;13.00;99.90
16955;DHT22;8594;52.052;8.354;2023-04-16T08:50:21;13.10;99.90
16955;DHT22;8594;52.052;8.354;2023-04-16T08:52:50;13.10;99.90
16955;DHT22;8594;52.052;8.354;2023-04-16T08:55:20;13.30;99.90
16955;DHT22;8594;52.052;8.354;2023-04-16T08:57:51;13.10;99.90
16955;DHT22;8594;52.052;8.354;2023-04-16T09:00:20;13.10;99.90
16955;DHT22;8594;52.052;8.354;2023-04-16T09:02:49;13.30;99.90
16955;DHT22;8594;52.052;8.354;2023-04-16T09:05:17;13.40;99.90
16955;DHT22;8594;52.052;8.354;2023-04-16T09:07:46;13.50;99.90
16955;DHT22;8594;52.052;8.354;2023-04-16T09:10:14;13.50;99.90
16955;DHT22;8594;52.052;8.354;2023-04-16T09:12:42;13.40;99.90
16955;DHT22;8594;52.052;8.354;2023-04-16T09:15:11;13.30;99.90
16955;DHT22;8594;52.052;8.354;2023-04-16T09:17:38;13.60;99.90
16955;DHT22;8594;52.052;8.354;2023-04-16T09:20:08;13.60;99.90
16955;DHT22;8594;52.052;8.354;2023-04-16T09:22:35;13.90;99.90
16955;DHT22;8594;52.052;8.354;2023-04-16T09:25:03;13.80;99.90
16955;DHT22;8594;52.052;8.354;2023-04-16T09:27:31;13.80;99.90
16955;DHT22;8594;52.052;8.354;2023-04-16T09:29:58;14.00;99.90
16955;DHT22;8594;52.052;8.354;2023-04-16T09:32:26;13.90;99.90
16955;DHT22;8594;52.052;8.354;2023-04-16T09:34:55;13.60;99.90
16955;DHT22;8594;52.052;8.354;2023-04-16T09:37:25;13.40;99.90
16955;DHT22;8594;52.052;8.354;2023-04-16T09:39:58;13.50;99.90
16955;DHT22;8594;52.052;8.354;2023-04-16T09:42:27;13.60;99.90
16955;DHT22;8594;52.052;8.354;2023-04-16T09:44:55;13.60;99.90
16955;DHT22;8594;52.052;8.354;2023-04-16T09:47:24;13.50;99.90
16955;DHT22;8594;52.052;8.354;2023-04-16T09:49:51;13.30;99.90
16955;DHT22;8594;52.052;8.354;2023-04-16T09:52:21;13.30;99.90
16955;DHT22;8594;52.052;8.354;2023-04-16T09:54:50;13.20;99.90
16955;DHT22;8594;52.052;8.354;2023-04-16T09:57:19;12.90;99.90
16955;DHT22;8594;52.052;8.354;2023-04-16T09:59:47;13.20;99.90
16955;DHT22;8594;52.052;8.354;2023-04-16T10:02:14;13.40;99.90
16955;DHT22;8594;52.052;8.354;2023-04-16T10:04:46;13.50;99.90
16955;DHT22;8594;52.052;8.354;2023-04-16T10:07:14;13.30;99.90
16955;DHT22;8594;52.052;8.354;2023-04-16T10:09:42;13.30;99.90
16955;DHT22;8594;52.052;8.354;2023-04-16T10:12:10;13.10;99.90
16955;DHT22;8594;52.052;8.354;2023-04-16T10:14:38;13.10;99.90
16955;DHT22;8594;52.052;8.354;2023-04-16T10:17:05;13.20;99.90
16955;DHT22;8594;52.052;8.354;2023-04-16T10:19:32;13.20;99.90
16955;DHT22;8594;52.052;8.354;2023-04-16T10:22:00;13.00;99.90
16955;DHT22;8594;52.052;8.354;2023-04-16T10:24:28;13.20;99.90
16955;DHT22;8594;52.052;8.354;2023-04-16T10:26:56;13.40;99.90
16955;DHT22;8594;52.052;8.354;2023-04-16T10:29:26;13.10;99.90
16955;DHT22;8594;52.052;8.354;2023-04-16T10:31:55;13.10;99.90
16955;DHT22;8594;52.052;8.354;2023-04-16T10:34:23;12.70;99.90
16955;DHT22;8594;52.052;8.354;2023-04-16T10:36:52;12.80;99.90
16955;DHT22;8594;52.052;8.354;2023-04-16T10:39:21;12.60;99.90
16955;DHT22;8594;52.052;8.354;2023-04-16T10:42:06;12.80;99.90
16955;DHT22;8594;52.052;8.354;2023-04-16T10:44:35;12.90;99.90
16955;DHT22;8594;52.052;8.354;2023-04-16T10:47:08;13.00;99.90
16955;DHT22;8594;52.052;8.354;2023-04-16T10:49:36;13.00;99.90
16955;DHT22;8594;52.052;8.354;2023-04-16T10:52:08;13.00;99.90
16955;DHT22;8594;52.052;8.354;2023-04-16T10:54:37;13.40;99.90
16955;DHT22;8594;52.052;8.354;2023-04-16T10:57:06;13.30;99.90
16955;DHT22;8594;52.052;8.354;2023-04-16T10:59:37;13.40;99.90
16955;DHT22;8594;52.052;8.354;2023-04-16T11:02:06;13.10;99.90
16955;DHT22;8594;52.052;8.354;2023-04-16T11:04:36;13.30;99.90
16955;DHT22;8594;52.052;8.354;2023-04-16T11:07:06;13.50;99.90
16955;DHT22;8594;52.052;8.354;2023-04-16T11:09:51;13.60;99.90
16955;DHT22;8594;52.052;8.354;2023-04-16T11:12:21;13.70;99.90
16955;DHT22;8594;52.052;8.354;2023-04-16T11:14:54;13.60;99.90
16955;DHT22;8594;52.052;8.354;2023-04-16T11:17:28;13.30;99.90
16955;DHT22;8594;52.052;8.354;2023-04-16T11:19:56;13.10;99.90
16955;DHT22;8594;52.052;8.354;2023-04-16T11:22:23;12.90;99.90
16955;DHT22;8594;52.052;8.354;2023-04-16T11:24:54;13.00;99.90
16955;DHT22;8594;52.052;8.354;2023-04-16T11:27:21;13.00;99.90
16955;DHT22;8594;52.052;8.354;2023-04-16T11:29:57;13.10;99.90
16955;DHT22;8594;52.052;8.354;2023-04-16T11:32:25;13.10;99.90
16955;DHT22;8594;52.052;8.354;2023-04-16T11:34:52;13.10;99.90
16955;DHT22;8594;52.052;8.354;2023-04-16T11:37:20;13.30;99.90
16955;DHT22;8594;52.052;8.354;2023-04-16T11:39:56;13.20;99.90
16955;DHT22;8594;52.052;8.354;2023-04-16T11:42:23;13.10;99.90
16955;DHT22;8594;52.052;8.354;2023-04-16T11:44:52;13.20;99.90
16955;DHT22;8594;52.052;8.354;2023-04-16T11:47:21;13.50;99.90
16955;DHT22;8594;52.052;8.354;2023-04-16T11:49:49;13.50;99.90
16955;DHT22;8594;52.052;8.354;2023-04-16T11:52:27;13.30;99.90
16955;DHT22;8594;52.052;8.354;2023-04-16T11:54:55;13.30;99.90
16955;DHT22;8594;52.052;8.354;2023-04-16T11:57:26;13.50;99.90
16955;DHT22;8594;52.052;8.354;2023-04-16T11:59:54;13.60;99.90
16955;DHT22;8594;52.052;8.354;2023-04-16T12:02:36;13.20;99.90
16955;DHT22;8594;52.052;8.354;2023-04-16T12:05:04;12.90;99.90
16955;DHT22;8594;52.052;8.354;2023-04-16T12:07:42;13.20;99.90
16955;DHT22;8594;52.052;8.354;2023-04-16T12:10:10;13.10;99.90
16955;DHT22;8594;52.052;8.354;2023-04-16T12:12:37;13.30;99.90
16955;DHT22;8594;52.052;8.354;2023-04-16T12:15:05;13.50;99.90
16955;DHT22;8594;52.052;8.354;2023-04-16T12:17:36;13.60;99.90
16955;DHT22;8594;52.052;8.354;2023-04-16T12:20:08;13.60;99.90
16955;DHT22;8594;52.052;8.354;2023-04-16T12:22:36;13.70;99.90
16955;DHT22;8594;52.052;8.354;2023-04-16T12:25:06;13.80;99.90
16955;DHT22;8594;52.052;8.354;2023-04-16T12:27:43;13.90;99.90
16955;DHT22;8594;52.052;8.354;2023-04-16T12:30:12;13.90;99.90
16955;DHT22;8594;52.052;8.354;2023-04-16T12:32:44;13.90;99.90
16955;DHT22;8594;52.052;8.354;2023-04-16T12:35:12;13.60;99.90
16955;DHT22;8594;52.052;8.354;2023-04-16T12:37:39;13.70;99.90
16955;DHT22;8594;52.052;8.354;2023-04-16T12:40:07;13.70;99.90
16955;DHT22;8594;52.052;8.354;2023-04-16T12:42:34;13.60;99.90
16955;DHT22;8594;52.052;8.354;2023-04-16T12:45:02;13.70;99.90
16955;DHT22;8594;52.052;8.354;2023-04-16T12:47:29;13.80;99.90
16955;DHT22;8594;52.052;8.354;2023-04-16T12:49:58;13.90;99.90
16955;DHT22;8594;52.052;8.354;2023-04-16T12:52:25;14.00;99.90
16955;DHT22;8594;52.052;8.354;2023-04-16T12:54:52;13.40;99.90
16955;DHT22;8594;52.052;8.354;2023-04-16T12:57:19;13.40;99.90
16955;DHT22;8594;52.052;8.354;2023-04-16T12:59:48;13.60;99.90
16955;DHT22;8594;52.052;8.354;2023-04-16T13:02:15;14.00;99.90
16955;DHT22;8594;52.052;8.354;2023-04-16T13:04:41;14.20;99.90
16955;DHT22;8594;52.052;8.354;2023-04-16T13:07:10;14.30;99.90
16955;DHT22;8594;52.052;8.354;2023-04-16T13:09:36;14.40;99.90
16955;DHT22;8594;52.052;8.354;2023-04-16T13:12:04;14.40;99.90
16955;DHT22;8594;52.052;8.354;2023-04-16T13:14:31;14.20;99.90
16955;DHT22;8594;52.052;8.354;2023-04-16T13:16:58;14.50;99.90
16955;DHT22;8594;52.052;8.354;2023-04-16T13:19:25;14.70;99.90
16955;DHT22;8594;52.052;8.354;2023-04-16T13:21:52;14.20;99.90
16955;DHT22;8594;52.052;8.354;2023-04-16T13:24:20;14.20;99.90
16955;DHT22;8594;52.052;8.354;2023-04-16T13:26:48;14.10;99.90
16955;DHT22;8594;52.052;8.354;2023-04-16T13:29:16;14.20;99.90
16955;DHT22;8594;52.052;8.354;2023-04-16T13:31:43;14.50;99.90
16955;DHT22;8594;52.052;8.354;2023-04-16T13:34:10;14.60;99.90
16955;DHT22;8594;52.052;8.354;2023-04-16T13:36:37;14.20;99.90
16955;DHT22;8594;52.052;8.354;2023-04-16T13:39:04;14.20;99.90
16955;DHT22;8594;52.052;8.354;2023-04-16T13:41:36;14.30;99.90
16955;DHT22;8594;52.052;8.354;2023-04-16T13:44:03;14.20;99.90
16955;DHT22;8594;52.052;8.354;2023-04-16T13:46:30;14.40;99.90
16955;DHT22;8594;52.052;8.354;2023-04-16T13:48:57;14.30;99.90
16955;DHT22;8594;52.052;8.354;2023-04-16T13:51:24;14.10;99.90
16955;DHT22;8594;52.052;8.354;2023-04-16T13:53:53;14.20;99.90
16955;DHT22;8594;52.052;8.354;2023-04-16T13:56:20;14.50;99.90
16955;DHT22;8594;52.052;8.354;2023-04-16T13:58:48;14.70;99.90
16955;DHT22;8594;52.052;8.354;2023-04-16T14:01:16;14.70;99.90
16955;DHT22;8594;52.052;8.354;2023-04-16T14:03:43;14.70;99.90
16955;DHT22;8594;52.052;8.354;2023-04-16T14:06:10;15.00;99.90
16955;DHT22;8594;52.052;8.354;2023-04-16T14:08:38;15.00;99.90
16955;DHT22;8594;52.052;8.354;2023-04-16T14:11:05;14.90;99.90
16955;DHT22;8594;52.052;8.354;2023-04-16T14:13:33;14.90;99.90
16955;DHT22;8594;52.052;8.354;2023-04-16T14:16:02;14.90;99.90
16955;DHT22;8594;52.052;8.354;2023-04-16T14:18:29;14.80;99.90
16955;DHT22;8594;52.052;8.354;2023-04-16T14:20:56;14.90;99.90
16955;DHT22;8594;52.052;8.354;2023-04-16T14:23:23;14.80;99.90
16955;DHT22;8594;52.052;8.354;2023-04-16T14:25:49;14.70;99.90
16955;DHT22;8594;52.052;8.354;2023-04-16T14:28:16;14.80;99.90
16955;DHT22;8594;52.052;8.354;2023-04-16T14:30:43;14.90;99.90
16955;DHT22;8594;52.052;8.354;2023-04-16T14:33:11;14.80;99.90
16955;DHT22;8594;52.052;8.354;2023-04-16T14:35:38;14.70;99.90
16955;DHT22;8594;52.052;8.354;2023-04-16T14:38:04;14.70;99.90
16955;DHT22;8594;52.052;8.354;2023-04-16T14:40:31;14.90;99.90
16955;DHT22;8594;52.052;8.354;2023-04-16T14:42:59;15.00;99.90
16955;DHT22;8594;52.052;8.354;2023-04-16T14:45:26;15.10;99.90
16955;DHT22;8594;52.052;8.354;2023-04-16T14:47:54;15.10;99.90
16955;DHT22;8594;52.052;8.354;2023-04-16T14:50:24;15.30;99.90
16955;DHT22;8594;52.052;8.354;2023-04-16T14:52:51;15.40;99.90
16955;DHT22;8594;52.052;8.354;2023-04-16T14:55:19;15.20;99.90
16955;DHT22;8594;52.052;8.354;2023-04-16T14:57:45;15.10;99.90
16955;DHT22;8594;52.052;8.354;2023-04-16T15:00:13;15.30;99.90
16955;DHT22;8594;52.052;8.354;2023-04-16T15:02:43;15.40;99.90
16955;DHT22;8594;52.052;8.354;2023-04-16T15:05:10;15.30;99.90
16955;DHT22;8594;52.052;8.354;2023-04-16T15:07:38;15.20;99.90
16955;DHT22;8594;52.052;8.354;2023-04-16T15:10:06;15.40;99.90
16955;DHT22;8594;52.052;8.354;2023-04-16T15:12:34;15.40;99.90
16955;DHT22;8594;52.052;8.354;2023-04-16T15:15:01;15.50;99.90
16955;DHT22;8594;52.052;8.354;2023-04-16T15:17:27;15.20;99.90
16955;DHT22;8594;52.052;8.354;2023-04-16T15:19:54;15.30;99.90
16955;DHT22;8594;52.052;8.354;2023-04-16T15:22:21;15.00;99.90
16955;DHT22;8594;52.052;8.354;2023-04-16T15:24:49;15.10;99.90
16955;DHT22;8594;52.052;8.354;2023-04-16T15:27:16;15.20;99.90
16955;DHT22;8594;52.052;8.354;2023-04-16T15:29:43;15.30;99.90
16955;DHT22;8594;52.052;8.354;2023-04-16T15:32:11;15.50;99.90
16955;DHT22;8594;52.052;8.354;2023-04-16T15:34:37;15.40;99.90
16955;DHT22;8594;52.052;8.354;2023-04-16T15:37:05;15.50;99.90
16955;DHT22;8594;52.052;8.354;2023-04-16T15:39:34;15.50;99.90
16955;DHT22;8594;52.052;8.354;2023-04-16T15:42:03;15.30;99.90
16955;DHT22;8594;52.052;8.354;2023-04-16T15:44:30;15.10;99.90
16955;DHT22;8594;52.052;8.354;2023-04-16T15:46:57;15.20;99.90
16955;DHT22;8594;52.052;8.354;2023-04-16T15:49:25;15.20;99.90
16955;DHT22;8594;52.052;8.354;2023-04-16T15:51:52;15.50;99.90
16955;DHT22;8594;52.052;8.354;2023-04-16T15:54:19;15.30;99.90